Time;durP1;ratioP1;P1;durP2;ratioP2;P2;SDS_P1;SDS_P2;PMS_P1;PMS_P2;Temp;Humidity;BMP_temperature;BMP_pressure;BME280_temperature;BME280_humidity;BME280_pressure;Samples;Min_cycle;Max_cycle;Signal;HPM_P1;HPM_P2
2021/01/02 00:02:43;;;;;;;18.13;10.07;;;1.10;99.90;;;;;;5082565;28;20439;-78
2021/01/02 00:05:13;;;;;;;16.33;10.63;;;1.10;99.90;;;;;;5073148;28;20451;-79
2021/01/02 00:07:56;;;;;;;13.80;9.40;;;1.10;99.90;;;;;;5048589;28;20413;-79
2021/01/02 00:10:23;;;;;;;14.50;9.57;;;1.10;99.90;;;;;;5055602;28;20425;-78
2021/01/02 00:13:10;;;;;;;19.60;11.50;;;1.10;99.90;;;;;;5071878;28;20937;-78
2021/01/02 00:16:19;;;;;;;13.73;8.83;;;1.10;99.90;;;;;;5071655;28;20423;-78
2021/01/02 00:19:05;;;;;;;14.33;10.50;;;1.10;99.90;;;;;;5072810;28;20780;-78
2021/01/02 00:21:43;;;;;;;16.33;10.57;;;1.10;99.90;;;;;;5069437;28;20437;-78
2021/01/02 00:24:22;;;;;;;15.50;10.50;;;1.10;99.90;;;;;;5056767;28;20784;-78
2021/01/02 00:26:55;;;;;;;16.40;10.37;;;1.10;99.90;;;;;;5080159;28;20174;-78
2021/01/02 00:29:24;;;;;;;14.67;10.27;;;1.10;99.90;;;;;;5084141;28;20401;-79
2021/01/02 00:31:49;;;;;;;16.90;9.87;;;1.10;99.90;;;;;;5064265;28;20422;-79
2021/01/02 00:34:37;;;;;;;13.20;10.00;;;1.10;99.90;;;;;;5080924;28;20970;-78
2021/01/02 00:37:21;;;;;;;14.63;10.80;;;1.10;99.90;;;;;;5079264;28;20660;-78
2021/01/02 00:40:02;;;;;;;15.03;9.50;;;1.10;99.90;;;;;;5078488;28;20419;-79
2021/01/02 00:42:29;;;;;;;15.57;9.87;;;1.10;99.90;;;;;;5080469;28;20434;-78
2021/01/02 00:44:58;;;;;;;17.87;10.63;;;1.10;99.90;;;;;;5082193;28;20486;-78
2021/01/02 00:47:30;;;;;;;12.40;8.80;;;1.10;99.90;;;;;;5063320;28;20501;-78
2021/01/02 00:49:55;;;;;;;16.13;10.50;;;1.00;99.90;;;;;;5064648;28;20436;-79
2021/01/02 00:52:42;;;;;;;17.43;10.10;;;1.10;99.90;;;;;;5063395;28;20486;-79
2021/01/02 00:55:43;;;;;;;17.80;11.83;;;1.00;99.90;;;;;;5058496;28;20272;-78
2021/01/02 00:58:28;;;;;;;15.87;11.00;;;1.10;99.90;;;;;;5065532;28;20940;-78
2021/01/02 01:01:04;;;;;;;17.90;11.30;;;1.10;99.90;;;;;;5081193;28;20426;-78
2021/01/02 01:04:00;;;;;;;19.60;11.67;;;1.00;99.90;;;;;;5082694;28;20449;-79
2021/01/02 01:06:29;;;;;;;17.47;10.80;;;1.10;99.90;;;;;;5080968;28;20427;-79
2021/01/02 01:09:04;;;;;;;16.60;11.50;;;1.10;99.90;;;;;;5080670;28;20422;-78
2021/01/02 01:11:34;;;;;;;17.47;12.13;;;1.10;99.90;;;;;;5082382;28;20442;-78
2021/01/02 01:14:01;;;;;;;18.50;12.17;;;1.10;99.90;;;;;;5080486;28;20472;-78
2021/01/02 01:16:35;;;;;;;21.00;12.63;;;1.20;99.90;;;;;;5082105;28;20454;-78
2021/01/02 01:19:04;;;;;;;21.63;11.50;;;1.20;99.90;;;;;;5080164;28;20452;-78
2021/01/02 01:21:39;;;;;;;19.03;12.30;;;1.20;99.90;;;;;;5082227;28;20423;-78
2021/01/02 01:24:09;;;;;;;18.87;11.30;;;1.20;99.90;;;;;;5061323;28;20457;-78
2021/01/02 01:27:24;;;;;;;19.80;11.73;;;1.30;99.90;;;;;;5075447;28;20411;-77
2021/01/02 01:29:58;;;;;;;18.27;11.70;;;1.30;99.90;;;;;;5049862;28;20485;-78
2021/01/02 01:32:25;;;;;;;17.73;11.00;;;1.30;99.90;;;;;;5080541;28;20787;-78
2021/01/02 01:34:59;;;;;;;20.50;12.70;;;1.40;99.90;;;;;;5063088;28;20468;-79
2021/01/02 01:37:32;;;;;;;17.13;11.20;;;1.40;99.90;;;;;;5080678;28;20993;-78
2021/01/02 01:40:00;;;;;;;15.40;11.53;;;1.40;99.90;;;;;;5082258;28;20825;-78
2021/01/02 01:42:49;;;;;;;21.07;12.83;;;1.50;99.90;;;;;;5080170;28;20426;-79
2021/01/02 01:45:20;;;;;;;21.60;13.10;;;1.60;99.90;;;;;;5077531;28;20419;-78
2021/01/02 01:48:06;;;;;;;21.20;12.43;;;1.60;99.90;;;;;;5063669;28;20492;-79
2021/01/02 01:50:57;;;;;;;20.47;12.43;;;1.60;99.90;;;;;;5079188;28;20404;-77
2021/01/02 01:53:49;;;;;;;18.23;13.20;;;1.60;99.90;;;;;;5061364;28;20535;-78
2021/01/02 01:56:24;;;;;;;20.10;13.00;;;1.60;99.90;;;;;;5077446;28;20411;-78
2021/01/02 01:58:53;;;;;;;19.57;12.27;;;1.60;99.90;;;;;;5081175;28;20392;-78
2021/01/02 02:01:25;;;;;;;17.73;12.27;;;1.70;99.90;;;;;;5080210;28;20411;-77
2021/01/02 02:04:09;;;;;;;21.47;12.70;;;1.70;99.90;;;;;;5080854;28;20443;-79
2021/01/02 02:06:37;;;;;;;19.53;12.50;;;1.70;99.90;;;;;;5078746;28;20928;-77
2021/01/02 02:09:04;;;;;;;29.30;13.10;;;1.70;99.90;;;;;;5079222;28;20378;-78
2021/01/02 02:11:35;;;;;;;23.10;13.80;;;1.80;99.90;;;;;;5082026;28;20434;-79
2021/01/02 02:14:30;;;;;;;22.30;12.30;;;1.80;99.90;;;;;;5082091;28;20444;-77
2021/01/02 02:17:04;;;;;;;20.93;12.73;;;1.80;99.90;;;;;;5080455;28;20390;-78
2021/01/02 02:19:51;;;;;;;21.70;12.37;;;1.80;99.90;;;;;;5079852;28;20948;-78
2021/01/02 02:22:20;;;;;;;23.63;13.47;;;1.80;99.90;;;;;;5062765;28;20438;-78
2021/01/02 02:24:50;;;;;;;24.10;13.33;;;2.00;99.90;;;;;;5081864;28;20937;-78
2021/01/02 02:27:26;;;;;;;19.63;12.30;;;1.90;99.90;;;;;;5063498;28;20442;-78
2021/01/02 02:30:14;;;;;;;20.30;13.00;;;1.90;99.90;;;;;;5084729;28;20464;-78
2021/01/02 02:32:45;;;;;;;20.70;13.90;;;1.90;99.90;;;;;;5083204;28;20805;-78
2021/01/02 02:35:12;;;;;;;19.03;13.13;;;1.90;99.90;;;;;;5063115;28;20449;-78
2021/01/02 02:37:44;;;;;;;20.80;13.20;;;1.90;99.90;;;;;;5079889;28;20427;-78
2021/01/02 02:40:10;;;;;;;22.17;13.77;;;1.80;99.90;;;;;;5079285;28;20394;-80
2021/01/02 02:42:39;;;;;;;21.43;13.37;;;1.80;99.90;;;;;;5063570;28;20454;-78
2021/01/02 02:45:09;;;;;;;20.50;13.87;;;1.80;99.90;;;;;;5082588;28;20447;-79
2021/01/02 02:47:38;;;;;;;22.13;14.07;;;1.80;99.90;;;;;;5056124;28;20435;-77
2021/01/02 02:50:11;;;;;;;21.17;14.30;;;1.80;99.90;;;;;;5078322;28;20447;-79
2021/01/02 02:52:39;;;;;;;19.50;13.07;;;1.80;99.90;;;;;;5059388;28;20429;-79
2021/01/02 02:55:05;;;;;;;18.97;12.70;;;1.80;99.90;;;;;;5072824;28;20445;-79
2021/01/02 02:57:33;;;;;;;16.13;12.10;;;1.70;99.90;;;;;;5083794;28;20440;-79
2021/01/02 02:59:58;;;;;;;19.13;13.10;;;1.80;99.90;;;;;;5084404;28;20426;-78
2021/01/02 03:02:26;;;;;;;19.37;13.73;;;1.70;99.90;;;;;;5083791;28;20422;-79
2021/01/02 03:04:52;;;;;;;20.33;12.90;;;1.70;99.90;;;;;;5077098;28;20235;-79
2021/01/02 03:07:18;;;;;;;19.77;12.83;;;1.70;99.90;;;;;;5065624;28;20431;-78
2021/01/02 03:09:45;;;;;;;20.57;12.97;;;1.70;99.90;;;;;;5076485;28;20648;-78
2021/01/02 03:12:10;;;;;;;20.10;12.60;;;1.70;99.90;;;;;;5085441;28;20425;-78
2021/01/02 03:14:36;;;;;;;18.80;11.60;;;1.70;99.90;;;;;;5079386;28;20469;-78
2021/01/02 03:17:02;;;;;;;16.57;11.20;;;1.60;99.90;;;;;;5079995;28;20658;-78
2021/01/02 03:19:29;;;;;;;18.70;11.47;;;1.60;99.90;;;;;;5081844;28;20446;-78
2021/01/02 03:21:55;;;;;;;15.13;10.60;;;1.60;99.90;;;;;;5065623;28;20216;-78
2021/01/02 03:24:21;;;;;;;20.50;12.23;;;1.60;99.90;;;;;;5083095;28;20439;-78
2021/01/02 03:26:46;;;;;;;19.33;11.93;;;1.60;99.90;;;;;;5080527;28;20850;-79
2021/01/02 03:29:12;;;;;;;18.73;12.17;;;1.60;99.90;;;;;;5082367;28;20498;-78
2021/01/02 03:31:38;;;;;;;21.77;12.37;;;1.60;99.90;;;;;;5079181;28;20626;-78
2021/01/02 03:34:03;;;;;;;20.53;12.77;;;1.60;99.90;;;;;;5084922;28;20211;-78
2021/01/02 03:36:29;;;;;;;20.53;13.23;;;1.60;99.90;;;;;;5070546;28;20508;-79
2021/01/02 03:38:56;;;;;;;18.73;11.67;;;1.60;99.90;;;;;;5085266;28;20203;-78
2021/01/02 03:41:23;;;;;;;18.80;11.70;;;1.60;99.90;;;;;;5083054;28;20188;-78
2021/01/02 03:43:49;;;;;;;19.23;13.03;;;1.60;99.90;;;;;;5083968;28;20765;-78
2021/01/02 03:46:15;;;;;;;19.23;12.50;;;1.60;99.90;;;;;;5079741;28;20800;-79
2021/01/02 03:48:41;;;;;;;22.40;13.07;;;1.60;99.90;;;;;;5075456;28;20454;-78
2021/01/02 03:51:06;;;;;;;19.67;13.20;;;1.60;99.90;;;;;;5062592;28;20216;-78
2021/01/02 03:53:32;;;;;;;22.83;14.57;;;1.60;99.90;;;;;;5080173;28;20633;-79
2021/01/02 03:55:58;;;;;;;19.67;13.63;;;1.60;99.90;;;;;;5086971;28;20182;-78
2021/01/02 03:58:23;;;;;;;17.53;11.60;;;1.50;99.90;;;;;;5078148;28;20677;-78
2021/01/02 04:00:48;;;;;;;22.50;12.83;;;1.50;99.90;;;;;;5064277;28;20173;-78
2021/01/02 04:03:14;;;;;;;19.53;12.27;;;1.50;99.90;;;;;;5065066;28;20207;-79
2021/01/02 04:05:44;;;;;;;21.67;13.43;;;1.50;99.90;;;;;;5079095;28;20188;-79
2021/01/02 04:08:10;;;;;;;20.90;13.10;;;1.50;99.90;;;;;;5074704;28;20188;-78
2021/01/02 04:10:36;;;;;;;17.63;12.17;;;1.50;99.90;;;;;;5074535;28;20434;-78
2021/01/02 04:13:01;;;;;;;19.50;13.20;;;1.50;99.90;;;;;;5062197;28;20202;-78
2021/01/02 04:15:27;;;;;;;22.70;13.03;;;1.50;99.90;;;;;;5081982;28;20199;-78
2021/01/02 04:17:52;;;;;;;24.97;15.33;;;1.50;99.90;;;;;;5081052;28;20194;-78
2021/01/02 04:20:18;;;;;;;20.10;13.03;;;1.50;99.90;;;;;;5078324;28;20194;-78
2021/01/02 04:22:44;;;;;;;21.97;13.73;;;1.50;99.90;;;;;;5083594;28;20943;-79
2021/01/02 04:25:10;;;;;;;21.83;13.60;;;1.60;99.90;;;;;;5078860;28;20795;-77
2021/01/02 04:27:35;;;;;;;21.00;13.90;;;1.60;99.90;;;;;;5076641;28;20189;-78
2021/01/02 04:30:02;;;;;;;24.73;13.37;;;1.60;99.90;;;;;;5081779;28;20177;-78
2021/01/02 04:32:28;;;;;;;21.83;14.07;;;1.70;99.90;;;;;;5062262;28;20299;-78
2021/01/02 04:34:53;;;;;;;22.33;15.33;;;1.70;99.90;;;;;;5080545;28;20536;-79
2021/01/02 04:37:25;;;;;;;20.27;13.90;;;1.70;99.90;;;;;;5081666;28;20212;-80
2021/01/02 04:39:51;;;;;;;27.17;14.63;;;1.70;99.90;;;;;;5063922;28;20175;-79
2021/01/02 04:42:16;;;;;;;21.83;13.80;;;1.70;99.90;;;;;;5078545;28;20434;-78
2021/01/02 04:44:42;;;;;;;17.40;12.87;;;1.70;99.90;;;;;;5079867;28;20185;-79
2021/01/02 04:47:08;;;;;;;18.67;13.27;;;1.70;99.90;;;;;;5076648;28;20228;-79
2021/01/02 04:49:33;;;;;;;22.20;14.00;;;1.70;99.90;;;;;;5079509;28;20277;-79
2021/01/02 04:52:03;;;;;;;23.10;14.83;;;1.70;99.90;;;;;;5074511;28;20631;-78
2021/01/02 04:54:28;;;;;;;24.03;14.63;;;1.60;99.90;;;;;;5082399;28;20263;-78
2021/01/02 04:56:54;;;;;;;21.30;13.77;;;1.70;99.90;;;;;;5077662;28;20831;-78
2021/01/02 04:59:26;;;;;;;18.23;13.50;;;1.70;99.90;;;;;;5082441;28;20211;-79
2021/01/02 05:01:53;;;;;;;23.60;14.13;;;1.70;99.90;;;;;;5063215;28;20661;-79
2021/01/02 05:04:18;;;;;;;24.47;15.00;;;1.70;99.90;;;;;;5077643;28;20459;-78
2021/01/02 05:06:44;;;;;;;25.17;14.53;;;1.70;99.90;;;;;;5080669;28;20868;-77
2021/01/02 05:09:09;;;;;;;22.60;14.83;;;1.70;99.90;;;;;;5076843;28;20207;-78
2021/01/02 05:11:36;;;;;;;21.90;13.53;;;1.70;99.90;;;;;;5079754;28;20195;-78
2021/01/02 05:14:04;;;;;;;20.87;13.17;;;1.70;99.90;;;;;;5077384;28;20625;-78
2021/01/02 05:16:40;;;;;;;20.30;13.37;;;1.80;99.90;;;;;;5082830;28;20442;-79
2021/01/02 05:19:08;;;;;;;19.50;14.13;;;1.80;99.90;;;;;;5073075;28;20438;-79
2021/01/02 05:21:36;;;;;;;22.10;13.20;;;1.70;99.90;;;;;;5078006;28;20413;-80
2021/01/02 05:24:16;;;;;;;21.10;14.83;;;1.60;99.90;;;;;;5062555;28;20472;-79
2021/01/02 05:26:44;;;;;;;22.70;14.40;;;1.60;99.90;;;;;;5076321;28;20385;-79
2021/01/02 05:29:14;;;;;;;23.30;13.50;;;1.50;99.90;;;;;;5057931;28;20435;-80
2021/01/02 05:31:42;;;;;;;21.20;13.73;;;1.60;99.90;;;;;;5057746;28;20415;-79
2021/01/02 05:34:09;;;;;;;21.10;12.90;;;1.50;99.90;;;;;;5072737;28;20441;-80
2021/01/02 05:36:35;;;;;;;26.53;15.23;;;1.50;99.90;;;;;;5083258;28;20470;-77
2021/01/02 05:39:02;;;;;;;18.83;13.30;;;1.50;99.90;;;;;;5063568;28;20430;-78
2021/01/02 05:41:51;;;;;;;23.57;14.73;;;1.50;99.90;;;;;;5079014;28;20509;-79
2021/01/02 05:44:17;;;;;;;20.43;14.00;;;1.50;99.90;;;;;;5077555;28;20432;-79
2021/01/02 05:46:55;;;;;;;23.90;14.17;;;1.50;99.90;;;;;;5073676;28;20441;-79
2021/01/02 05:49:47;;;;;;;22.00;13.90;;;1.50;99.90;;;;;;5075714;28;20475;-79
2021/01/02 05:52:14;;;;;;;23.10;15.57;;;1.50;99.90;;;;;;5078029;28;20486;-79
2021/01/02 05:54:51;;;;;;;21.57;14.10;;;1.60;99.90;;;;;;5060958;28;20471;-78
2021/01/02 05:57:28;;;;;;;28.43;16.00;;;1.60;99.90;;;;;;5073708;28;20418;-78
2021/01/02 05:59:55;;;;;;;27.63;15.97;;;1.50;99.90;;;;;;5063097;28;20434;-78
2021/01/02 06:02:29;;;;;;;28.87;13.90;;;1.60;99.90;;;;;;5077762;28;20466;-78
2021/01/02 06:05:07;;;;;;;31.23;16.77;;;1.50;99.90;;;;;;5082430;28;20929;-77
2021/01/02 06:07:47;;;;;;;29.47;14.47;;;1.50;99.90;;;;;;5075407;28;20588;-76
2021/01/02 06:10:13;;;;;;;26.10;15.40;;;1.50;99.90;;;;;;5076773;28;20427;-77
2021/01/02 06:12:40;;;;;;;26.37;14.53;;;1.50;99.90;;;;;;5077479;28;20454;-77
2021/01/02 06:15:13;;;;;;;25.00;14.67;;;1.50;99.90;;;;;;5057198;28;20325;-78
2021/01/02 06:17:40;;;;;;;25.90;14.37;;;1.60;99.90;;;;;;5077876;28;20474;-77
2021/01/02 06:20:11;;;;;;;29.50;16.73;;;1.60;99.90;;;;;;5036852;28;20430;-77
2021/01/02 06:22:38;;;;;;;32.10;15.60;;;1.50;99.90;;;;;;5075860;28;20480;-77
2021/01/02 06:25:08;;;;;;;29.83;16.73;;;1.50;99.90;;;;;;5087872;28;20412;-77
2021/01/02 06:27:37;;;;;;;33.07;17.37;;;1.50;99.90;;;;;;5082751;28;20413;-77
2021/01/02 06:30:03;;;;;;;33.73;18.90;;;1.50;99.90;;;;;;5078708;28;20439;-77
2021/01/02 06:32:29;;;;;;;35.60;18.33;;;1.50;99.90;;;;;;5074726;28;20437;-77
2021/01/02 06:35:10;;;;;;;46.97;21.00;;;1.50;99.90;;;;;;5074465;28;20475;-77
2021/01/02 06:37:48;;;;;;;41.90;19.80;;;1.50;99.90;;;;;;5080074;28;20411;-77
2021/01/02 06:40:37;;;;;;;43.17;19.50;;;1.60;99.90;;;;;;5069900;28;20440;-77
2021/01/02 06:43:11;;;;;;;53.87;19.87;;;1.50;99.90;;;;;;5079796;28;20419;-79
2021/01/02 06:45:40;;;;;;;34.47;17.47;;;1.60;99.90;;;;;;5069315;28;20423;-80
2021/01/02 06:48:20;;;;;;;35.87;17.37;;;1.60;99.90;;;;;;5064219;28;20438;-79
2021/01/02 06:50:57;;;;;;;33.23;16.37;;;1.60;99.90;;;;;;5079406;28;20441;-79
2021/01/02 06:53:26;;;;;;;36.63;17.37;;;1.60;99.90;;;;;;5065176;28;20459;-80
2021/01/02 06:55:58;;;;;;;36.73;18.27;;;1.60;99.90;;;;;;5063868;28;20852;-79
2021/01/02 06:58:24;;;;;;;29.60;16.80;;;1.60;99.90;;;;;;5082784;28;20858;-79
2021/01/02 07:00:50;;;;;;;38.47;18.70;;;1.60;99.90;;;;;;5080895;28;20494;-80
2021/01/02 07:03:40;;;;;;;35.13;17.90;;;1.50;99.90;;;;;;5080681;28;20236;-79
2021/01/02 07:06:24;;;;;;;34.73;18.07;;;1.60;99.90;;;;;;5075250;28;20259;-79
2021/01/02 07:08:57;;;;;;;39.70;18.40;;;1.50;99.90;;;;;;5083704;28;20411;-79
2021/01/02 07:11:33;;;;;;;35.43;18.10;;;1.40;99.90;;;;;;5083997;28;20442;-79
2021/01/02 07:14:17;;;;;;;43.27;17.70;;;1.40;99.90;;;;;;5066964;28;21056;-79
2021/01/02 07:16:56;;;;;;;41.73;19.53;;;1.30;99.90;;;;;;5059301;28;20906;-74
2021/01/02 07:19:25;;;;;;;38.27;18.57;;;1.40;99.90;;;;;;5079976;28;20462;-74
2021/01/02 07:22:00;;;;;;;38.13;19.73;;;1.40;99.90;;;;;;5075880;28;20428;-73
2021/01/02 07:24:38;;;;;;;38.40;19.00;;;1.40;99.90;;;;;;5083120;28;20508;-73
2021/01/02 07:27:05;;;;;;;47.13;20.60;;;1.40;99.90;;;;;;5081513;28;20437;-73
2021/01/02 07:29:41;;;;;;;41.47;20.03;;;1.40;99.90;;;;;;5084291;28;20484;-73
2021/01/02 07:32:15;;;;;;;38.67;18.07;;;1.50;99.90;;;;;;5075574;28;20496;-73
2021/01/02 07:34:43;;;;;;;38.50;18.73;;;1.40;99.90;;;;;;5076184;28;20554;-73
2021/01/02 07:37:12;;;;;;;37.03;19.47;;;1.50;99.90;;;;;;5083810;28;20474;-73
2021/01/02 07:39:38;;;;;;;40.33;19.20;;;1.50;99.90;;;;;;5078905;28;20440;-73
2021/01/02 07:42:11;;;;;;;42.90;18.33;;;1.50;99.90;;;;;;5081550;28;20412;-73
2021/01/02 07:44:39;;;;;;;43.73;20.47;;;1.50;99.90;;;;;;5077702;28;20504;-73
2021/01/02 07:47:06;;;;;;;35.03;16.73;;;1.50;99.90;;;;;;5081527;28;20897;-73
2021/01/02 07:49:32;;;;;;;42.70;19.80;;;1.60;99.90;;;;;;5077228;28;20467;-74
2021/01/02 07:51:57;;;;;;;39.10;19.30;;;1.60;99.90;;;;;;5082142;28;20418;-74
2021/01/02 07:54:37;;;;;;;36.17;16.97;;;1.60;99.90;;;;;;5080747;28;20241;-74
2021/01/02 07:57:08;;;;;;;35.33;17.80;;;1.70;99.90;;;;;;5080261;28;20259;-73
2021/01/02 07:59:35;;;;;;;39.27;18.23;;;1.60;99.90;;;;;;5077002;28;20787;-73
2021/01/02 08:02:08;;;;;;;41.33;17.27;;;1.70;99.90;;;;;;5083460;28;20407;-73
2021/01/02 08:04:35;;;;;;;33.40;16.60;;;1.60;99.90;;;;;;5078699;28;20547;-74
2021/01/02 08:07:06;;;;;;;29.43;16.33;;;1.60;99.90;;;;;;5079948;28;20478;-72
2021/01/02 08:09:33;;;;;;;32.70;17.60;;;1.70;99.90;;;;;;5081305;28;20421;-72
2021/01/02 08:12:06;;;;;;;33.60;18.50;;;1.80;99.90;;;;;;5077752;28;20491;-72
2021/01/02 08:14:33;;;;;;;31.70;17.50;;;1.70;99.90;;;;;;5083478;28;20787;-73
2021/01/02 08:17:07;;;;;;;32.83;17.87;;;1.70;99.90;;;;;;5074967;28;20432;-74
2021/01/02 08:19:55;;;;;;;47.20;21.47;;;1.70;99.90;;;;;;5080039;28;20418;-74
2021/01/02 08:22:31;;;;;;;40.23;17.87;;;1.70;99.90;;;;;;5078356;28;20936;-72
2021/01/02 08:24:59;;;;;;;33.00;16.77;;;1.80;99.90;;;;;;5082720;28;20418;-73
2021/01/02 08:27:25;;;;;;;32.60;16.87;;;1.90;99.90;;;;;;5074874;28;20980;-73
2021/01/02 08:29:53;;;;;;;34.80;18.37;;;1.90;99.90;;;;;;5081883;28;20424;-73
2021/01/02 08:32:23;;;;;;;31.63;18.23;;;1.90;99.90;;;;;;5078998;28;20411;-73
2021/01/02 08:34:48;;;;;;;32.87;16.93;;;1.90;99.90;;;;;;5063271;28;20474;-73
2021/01/02 08:37:16;;;;;;;37.23;17.07;;;1.80;99.90;;;;;;5075832;28;20479;-73
2021/01/02 08:39:42;;;;;;;37.93;17.53;;;1.80;99.90;;;;;;5083578;28;20177;-75
2021/01/02 08:42:08;;;;;;;39.97;18.97;;;1.80;99.90;;;;;;5078010;28;20564;-73
2021/01/02 08:44:43;;;;;;;38.83;18.10;;;1.80;99.90;;;;;;5081498;28;20421;-73
2021/01/02 08:47:08;;;;;;;41.67;19.67;;;1.90;99.90;;;;;;5056672;28;20432;-74
2021/01/02 08:49:41;;;;;;;48.03;19.33;;;1.90;99.90;;;;;;5076036;28;20575;-74
2021/01/02 08:52:12;;;;;;;34.60;18.37;;;1.80;99.90;;;;;;5074013;28;20203;-74
2021/01/02 08:54:38;;;;;;;36.30;18.70;;;1.90;99.90;;;;;;5074657;28;20440;-73
2021/01/02 08:57:25;;;;;;;38.40;17.00;;;1.90;99.90;;;;;;5080247;28;20940;-75
2021/01/02 08:59:50;;;;;;;35.13;18.20;;;1.90;99.90;;;;;;5074476;28;20551;-74
2021/01/02 09:02:16;;;;;;;40.93;20.50;;;1.90;99.90;;;;;;5082329;28;20400;-74
2021/01/02 09:04:42;;;;;;;34.23;17.00;;;2.00;99.90;;;;;;5079314;28;20190;-74
2021/01/02 09:07:07;;;;;;;32.30;16.63;;;2.00;99.90;;;;;;5077862;28;20433;-73
2021/01/02 09:09:33;;;;;;;33.93;17.37;;;2.00;99.90;;;;;;5077701;28;20209;-73
2021/01/02 09:12:04;;;;;;;36.77;16.43;;;2.10;99.90;;;;;;5078324;28;20271;-73
2021/01/02 09:14:30;;;;;;;33.43;16.80;;;2.00;99.90;;;;;;5078064;28;20210;-74
2021/01/02 09:17:03;;;;;;;33.20;17.20;;;2.10;99.90;;;;;;5079751;28;20511;-74
2021/01/02 09:19:28;;;;;;;36.40;18.23;;;2.00;99.90;;;;;;5081687;28;20838;-74
2021/01/02 09:21:54;;;;;;;32.50;16.83;;;2.00;99.90;;;;;;5076422;28;20434;-74
2021/01/02 09:24:21;;;;;;;31.37;17.80;;;2.10;99.90;;;;;;5080513;28;20443;-74
2021/01/02 09:26:48;;;;;;;31.13;18.10;;;2.10;99.90;;;;;;5076805;28;20204;-74
2021/01/02 09:29:16;;;;;;;32.80;17.27;;;2.20;99.90;;;;;;5082239;28;20880;-73
2021/01/02 09:31:42;;;;;;;32.73;18.40;;;2.20;99.90;;;;;;5058038;28;20430;-74
2021/01/02 09:34:08;;;;;;;39.00;18.00;;;2.20;99.90;;;;;;5079541;28;20496;-74
2021/01/02 09:36:34;;;;;;;37.43;17.53;;;2.20;99.90;;;;;;5071674;28;20437;-74
2021/01/02 09:39:00;;;;;;;32.03;17.27;;;2.20;99.90;;;;;;5081749;28;20411;-72
2021/01/02 09:41:26;;;;;;;36.57;17.13;;;2.20;99.90;;;;;;5078519;28;20203;-73
2021/01/02 09:43:54;;;;;;;32.33;17.43;;;2.30;99.90;;;;;;5077312;28;20527;-73
2021/01/02 09:46:21;;;;;;;32.60;16.60;;;2.30;99.90;;;;;;5080114;28;20432;-73
2021/01/02 09:48:49;;;;;;;28.83;16.43;;;2.30;99.90;;;;;;5076612;28;20431;-74
2021/01/02 09:51:15;;;;;;;30.73;16.73;;;2.30;99.90;;;;;;5074120;28;20446;-72
2021/01/02 09:53:41;;;;;;;36.30;17.30;;;2.40;99.90;;;;;;5078419;28;20490;-73
2021/01/02 09:56:07;;;;;;;35.73;18.23;;;2.40;99.90;;;;;;5074901;28;20418;-73
2021/01/02 09:58:33;;;;;;;26.70;16.60;;;2.40;99.90;;;;;;5078135;28;20194;-72
2021/01/02 10:00:59;;;;;;;35.60;16.70;;;2.50;99.90;;;;;;5080154;28;20409;-75
2021/01/02 10:03:24;;;;;;;35.30;18.17;;;2.40;99.90;;;;;;5078374;28;20296;-74
2021/01/02 10:05:50;;;;;;;30.30;17.13;;;2.50;99.90;;;;;;5077519;28;20817;-75
2021/01/02 10:08:15;;;;;;;35.60;17.53;;;2.50;99.90;;;;;;5079693;28;20192;-74
2021/01/02 10:10:41;;;;;;;35.17;17.30;;;2.50;99.90;;;;;;5076722;28;20196;-73
2021/01/02 10:13:06;;;;;;;29.67;16.73;;;2.70;99.90;;;;;;5074435;28;20235;-73
2021/01/02 10:15:32;;;;;;;28.60;17.20;;;2.60;99.90;;;;;;5075914;28;20232;-73
2021/01/02 10:17:57;;;;;;;30.70;18.47;;;2.70;99.90;;;;;;5081187;28;20647;-73
2021/01/02 10:20:24;;;;;;;35.77;18.27;;;2.60;99.90;;;;;;5076780;28;20210;-74
2021/01/02 10:22:49;;;;;;;25.10;15.20;;;2.70;99.90;;;;;;5081934;28;20562;-73
2021/01/02 10:25:15;;;;;;;32.80;18.30;;;2.80;99.90;;;;;;5079809;28;20441;-74
2021/01/02 10:27:40;;;;;;;28.50;16.40;;;2.80;99.90;;;;;;5076936;28;20623;-74
2021/01/02 10:30:09;;;;;;;29.60;15.50;;;2.80;99.90;;;;;;5076740;28;20721;-73
2021/01/02 10:32:35;;;;;;;29.33;16.60;;;2.90;99.90;;;;;;5070126;28;20253;-73
2021/01/02 10:35:00;;;;;;;26.47;15.87;;;2.90;99.90;;;;;;5071578;28;20797;-73
2021/01/02 10:37:29;;;;;;;32.60;15.97;;;2.90;99.90;;;;;;5067998;28;20219;-73
2021/01/02 10:39:55;;;;;;;29.00;16.10;;;2.90;99.90;;;;;;5053567;28;20177;-73
2021/01/02 10:42:24;;;;;;;30.30;16.60;;;3.00;99.90;;;;;;5077830;28;20458;-73
2021/01/02 10:44:49;;;;;;;32.80;16.07;;;3.00;99.90;;;;;;5084966;28;20425;-73
2021/01/02 10:47:20;;;;;;;31.40;17.10;;;3.00;99.90;;;;;;5078733;28;20924;-74
2021/01/02 10:49:46;;;;;;;28.17;14.70;;;3.10;99.90;;;;;;5083509;28;20521;-73
2021/01/02 10:52:14;;;;;;;23.67;15.10;;;3.10;99.90;;;;;;5073670;28;20450;-74
2021/01/02 10:54:42;;;;;;;25.80;15.80;;;3.10;99.90;;;;;;5085633;28;20586;-74
2021/01/02 10:57:08;;;;;;;31.37;16.13;;;3.10;99.90;;;;;;5076499;28;20411;-72
2021/01/02 10:59:33;;;;;;;27.70;16.33;;;3.00;99.90;;;;;;5080022;28;20491;-74
2021/01/02 11:01:59;;;;;;;24.97;14.57;;;3.00;99.90;;;;;;5084347;28;20188;-73
2021/01/02 11:04:27;;;;;;;31.33;15.83;;;3.10;99.90;;;;;;5081128;28;20753;-74
2021/01/02 11:06:53;;;;;;;29.03;15.73;;;3.00;99.90;;;;;;5080482;28;20221;-72
2021/01/02 11:09:20;;;;;;;29.67;15.43;;;3.00;99.90;;;;;;5078734;28;20483;-73
2021/01/02 11:11:46;;;;;;;32.83;16.27;;;3.10;99.90;;;;;;5066510;28;20445;-72
2021/01/02 11:14:12;;;;;;;23.97;14.60;;;3.10;99.90;;;;;;5081414;28;20554;-73
2021/01/02 11:16:43;;;;;;;25.10;15.00;;;3.20;99.90;;;;;;5081791;28;20805;-72
2021/01/02 11:19:13;;;;;;;24.87;13.70;;;3.10;99.90;;;;;;5076791;28;20184;-74
2021/01/02 11:21:39;;;;;;;29.37;15.10;;;3.10;99.90;;;;;;5074079;28;20717;-73
2021/01/02 11:24:06;;;;;;;24.73;15.50;;;3.10;99.90;;;;;;5079675;28;20833;-72
2021/01/02 11:26:32;;;;;;;24.00;15.43;;;3.20;99.90;;;;;;5084574;28;20427;-73
2021/01/02 11:28:57;;;;;;;27.00;14.73;;;3.00;99.90;;;;;;5082868;28;20488;-74
2021/01/02 11:31:31;;;;;;;28.20;13.53;;;3.00;99.90;;;;;;5056011;28;20215;-72
2021/01/02 11:33:56;;;;;;;22.43;13.70;;;3.10;99.90;;;;;;5082888;28;20203;-72
2021/01/02 11:36:22;;;;;;;23.83;15.13;;;3.10;99.90;;;;;;5078551;28;20928;-73
2021/01/02 11:38:48;;;;;;;28.50;15.73;;;3.10;99.90;;;;;;5080298;28;20561;-74
2021/01/02 11:41:16;;;;;;;24.13;14.17;;;3.10;99.90;;;;;;5079426;28;20684;-74
2021/01/02 11:43:42;;;;;;;24.27;14.17;;;3.10;99.90;;;;;;5080079;28;20758;-73
2021/01/02 11:46:07;;;;;;;28.57;15.60;;;3.00;99.90;;;;;;5080558;28;20421;-73
2021/01/02 11:48:35;;;;;;;23.43;13.67;;;3.00;99.90;;;;;;5079099;28;20595;-73
2021/01/02 11:51:00;;;;;;;27.20;14.13;;;3.00;99.90;;;;;;5075150;28;20669;-74
2021/01/02 11:53:26;;;;;;;22.77;13.40;;;3.00;99.90;;;;;;5075286;28;20447;-73
2021/01/02 11:55:51;;;;;;;26.77;15.63;;;3.00;99.90;;;;;;5083176;28;20168;-74
2021/01/02 11:58:17;;;;;;;24.80;14.47;;;3.10;99.90;;;;;;5080054;28;20647;-74
2021/01/02 12:00:42;;;;;;;24.57;14.43;;;3.10;99.90;;;;;;5083883;28;20183;-73
2021/01/02 12:03:08;;;;;;;25.60;13.67;;;3.00;99.90;;;;;;5078369;28;20207;-73
2021/01/02 12:05:33;;;;;;;25.50;14.90;;;3.00;99.90;;;;;;5077340;28;20183;-73
2021/01/02 12:07:59;;;;;;;24.43;14.87;;;2.90;99.90;;;;;;5078710;28;20659;-73
2021/01/02 12:10:24;;;;;;;23.00;12.83;;;2.90;99.90;;;;;;5081191;28;20310;-73
2021/01/02 12:12:50;;;;;;;22.67;13.50;;;2.90;99.90;;;;;;5079339;28;20201;-74
2021/01/02 12:15:15;;;;;;;23.70;12.90;;;2.90;99.90;;;;;;5076301;28;20674;-73
2021/01/02 12:17:41;;;;;;;19.27;12.93;;;2.80;99.90;;;;;;5066361;28;20175;-72
2021/01/02 12:20:07;;;;;;;23.57;13.70;;;2.90;99.90;;;;;;5079348;28;20650;-73
2021/01/02 12:22:33;;;;;;;21.33;14.07;;;2.90;99.90;;;;;;5075567;28;20567;-73
2021/01/02 12:24:59;;;;;;;23.17;13.23;;;2.90;99.90;;;;;;5080694;28;20436;-74
2021/01/02 12:27:24;;;;;;;19.67;12.70;;;2.90;99.90;;;;;;5079508;28;20472;-73
2021/01/02 12:29:50;;;;;;;27.93;15.20;;;2.90;99.90;;;;;;5082296;28;20186;-72
2021/01/02 12:32:15;;;;;;;21.13;13.23;;;2.90;99.90;;;;;;5061260;28;20748;-74
2021/01/02 12:34:43;;;;;;;26.37;14.53;;;2.90;99.90;;;;;;5079971;28;20600;-72
2021/01/02 12:37:15;;;;;;;26.60;15.50;;;2.90;99.90;;;;;;5071203;28;20185;-72
2021/01/02 12:39:43;;;;;;;23.40;13.57;;;2.90;99.90;;;;;;5076580;28;21001;-73
2021/01/02 12:42:10;;;;;;;24.57;15.00;;;2.90;99.90;;;;;;5063266;28;20814;-72
2021/01/02 12:44:35;;;;;;;31.80;16.67;;;2.80;99.90;;;;;;5081247;28;20426;-73
2021/01/02 12:47:11;;;;;;;27.03;15.50;;;2.80;99.90;;;;;;5079602;28;20440;-72
2021/01/02 12:49:38;;;;;;;26.37;15.27;;;2.90;99.90;;;;;;5065996;28;20199;-72
2021/01/02 12:52:05;;;;;;;22.80;15.23;;;2.90;99.90;;;;;;5079089;28;20435;-73
2021/01/02 12:54:31;;;;;;;23.07;15.07;;;2.90;99.90;;;;;;5058759;28;20561;-72